sensor_id;sensor_type;location;lat;lon;timestamp;P1;durP1;ratioP1;P2;durP2;ratioP2
9489;SDS011;4783;42.734;23.288;2022-09-09T07:37:55;12.30;;;7.63;;
9489;SDS011;4783;42.734;23.288;2022-09-09T07:47:22;16.25;;;8.23;;
9489;SDS011;4783;42.734;23.288;2022-09-09T07:55:47;11.10;;;6.75;;
9489;SDS011;4783;42.734;23.288;2022-09-09T07:58:13;15.25;;;7.43;;
9489;SDS011;4783;42.734;23.288;2022-09-09T08:00:38;17.00;;;7.68;;
9489;SDS011;4783;42.734;23.288;2022-09-09T08:03:04;106.90;;;12.23;;
9489;SDS011;4783;42.734;23.288;2022-09-09T08:05:29;28.10;;;8.38;;
9489;SDS011;4783;42.734;23.288;2022-09-09T08:07:55;12.60;;;7.82;;
9489;SDS011;4783;42.734;23.288;2022-09-09T08:16:19;12.15;;;8.52;;
9489;SDS011;4783;42.734;23.288;2022-09-09T08:18:48;16.23;;;10.00;;
9489;SDS011;4783;42.734;23.288;2022-09-09T08:21:15;14.02;;;8.20;;
9489;SDS011;4783;42.734;23.288;2022-09-09T08:23:43;19.65;;;8.15;;
9489;SDS011;4783;42.734;23.288;2022-09-09T08:26:13;15.35;;;8.63;;
9489;SDS011;4783;42.734;23.288;2022-09-09T08:28:40;14.93;;;7.50;;
9489;SDS011;4783;42.734;23.288;2022-09-09T08:31:06;12.25;;;7.57;;
9489;SDS011;4783;42.734;23.288;2022-09-09T08:33:31;12.18;;;7.95;;
9489;SDS011;4783;42.734;23.288;2022-09-09T08:35:58;13.90;;;8.10;;
9489;SDS011;4783;42.734;23.288;2022-09-09T08:38:23;14.57;;;8.18;;
9489;SDS011;4783;42.734;23.288;2022-09-09T08:40:49;21.92;;;8.38;;
9489;SDS011;4783;42.734;23.288;2022-09-09T08:43:19;12.00;;;7.10;;
9489;SDS011;4783;42.734;23.288;2022-09-09T08:48:25;16.02;;;7.10;;
9489;SDS011;4783;42.734;23.288;2022-09-09T08:50:55;12.30;;;7.68;;
9489;SDS011;4783;42.734;23.288;2022-09-09T08:53:27;13.10;;;7.13;;
9489;SDS011;4783;42.734;23.288;2022-09-09T08:55:56;13.90;;;7.15;;
9489;SDS011;4783;42.734;23.288;2022-09-09T08:58:29;11.57;;;7.55;;
9489;SDS011;4783;42.734;23.288;2022-09-09T09:01:05;15.38;;;7.15;;
9489;SDS011;4783;42.734;23.288;2022-09-09T09:03:43;13.02;;;6.35;;
9489;SDS011;4783;42.734;23.288;2022-09-09T09:11:24;10.48;;;6.13;;
9489;SDS011;4783;42.734;23.288;2022-09-09T09:14:00;8.98;;;6.68;;
9489;SDS011;4783;42.734;23.288;2022-09-09T09:16:33;8.80;;;6.40;;
9489;SDS011;4783;42.734;23.288;2022-09-09T09:19:00;16.33;;;10.10;;
9489;SDS011;4783;42.734;23.288;2022-09-09T09:21:34;10.70;;;7.50;;
9489;SDS011;4783;42.734;23.288;2022-09-09T09:24:01;14.20;;;6.70;;
9489;SDS011;4783;42.734;23.288;2022-09-09T09:26:30;15.77;;;6.53;;
9489;SDS011;4783;42.734;23.288;2022-09-09T09:28:55;9.82;;;7.63;;
9489;SDS011;4783;42.734;23.288;2022-09-09T09:31:22;8.18;;;6.60;;
9489;SDS011;4783;42.734;23.288;2022-09-09T09:36:14;9.00;;;6.93;;
9489;SDS011;4783;42.734;23.288;2022-09-09T09:38:51;15.57;;;6.90;;
9489;SDS011;4783;42.734;23.288;2022-09-09T09:41:16;8.98;;;6.40;;
9489;SDS011;4783;42.734;23.288;2022-09-09T09:43:52;8.70;;;6.40;;
9489;SDS011;4783;42.734;23.288;2022-09-09T09:46:22;11.00;;;6.35;;
9489;SDS011;4783;42.734;23.288;2022-09-09T09:49:04;11.70;;;6.45;;
9489;SDS011;4783;42.734;23.288;2022-09-09T09:51:31;18.77;;;12.45;;
9489;SDS011;4783;42.734;23.288;2022-09-09T10:01:23;13.23;;;7.35;;
9489;SDS011;4783;42.734;23.288;2022-09-09T10:03:59;12.38;;;7.47;;
9489;SDS011;4783;42.734;23.288;2022-09-09T10:22:33;11.63;;;7.75;;
9489;SDS011;4783;42.734;23.288;2022-09-09T10:47:49;18.40;;;7.45;;
9489;SDS011;4783;42.734;23.288;2022-09-09T10:55:59;24.42;;;8.18;;
9489;SDS011;4783;42.734;23.288;2022-09-09T11:02:45;16.70;;;8.20;;
9489;SDS011;4783;42.734;23.288;2022-09-09T11:13:17;15.00;;;8.02;;
9489;SDS011;4783;42.734;23.288;2022-09-09T11:19:42;15.30;;;7.53;;
9489;SDS011;4783;42.734;23.288;2022-09-09T11:24:53;11.57;;;7.13;;
9489;SDS011;4783;42.734;23.288;2022-09-09T11:37:42;11.80;;;7.15;;
9489;SDS011;4783;42.734;23.288;2022-09-09T11:40:16;12.38;;;7.30;;
9489;SDS011;4783;42.734;23.288;2022-09-09T11:42:42;9.65;;;7.20;;
9489;SDS011;4783;42.734;23.288;2022-09-09T11:45:15;12.75;;;8.05;;
9489;SDS011;4783;42.734;23.288;2022-09-09T11:47:51;11.80;;;7.28;;
9489;SDS011;4783;42.734;23.288;2022-09-09T11:52:43;11.90;;;7.20;;
9489;SDS011;4783;42.734;23.288;2022-09-09T11:55:32;17.40;;;8.80;;
9489;SDS011;4783;42.734;23.288;2022-09-09T11:58:01;12.05;;;7.22;;
9489;SDS011;4783;42.734;23.288;2022-09-09T12:00:29;11.55;;;6.47;;
9489;SDS011;4783;42.734;23.288;2022-09-09T12:02:58;11.18;;;8.00;;
9489;SDS011;4783;42.734;23.288;2022-09-09T12:05:23;11.80;;;7.75;;
9489;SDS011;4783;42.734;23.288;2022-09-09T12:08:00;13.00;;;7.28;;
9489;SDS011;4783;42.734;23.288;2022-09-09T12:10:35;11.70;;;6.40;;
9489;SDS011;4783;42.734;23.288;2022-09-09T12:13:15;8.90;;;6.97;;
9489;SDS011;4783;42.734;23.288;2022-09-09T12:15:50;10.88;;;7.20;;
9489;SDS011;4783;42.734;23.288;2022-09-09T12:18:36;12.38;;;6.90;;
9489;SDS011;4783;42.734;23.288;2022-09-09T12:26:29;12.00;;;7.50;;
9489;SDS011;4783;42.734;23.288;2022-09-09T12:34:13;13.75;;;7.35;;
9489;SDS011;4783;42.734;23.288;2022-09-09T12:36:39;13.05;;;7.03;;
9489;SDS011;4783;42.734;23.288;2022-09-09T12:41:50;14.73;;;6.70;;
9489;SDS011;4783;42.734;23.288;2022-09-09T12:44:15;13.05;;;7.53;;
9489;SDS011;4783;42.734;23.288;2022-09-09T12:46:41;24.07;;;10.80;;
9489;SDS011;4783;42.734;23.288;2022-09-09T12:49:28;12.18;;;6.90;;
9489;SDS011;4783;42.734;23.288;2022-09-09T12:51:56;10.00;;;7.30;;
9489;SDS011;4783;42.734;23.288;2022-09-09T12:54:22;8.05;;;6.75;;
9489;SDS011;4783;42.734;23.288;2022-09-09T12:56:48;12.10;;;6.32;;
9489;SDS011;4783;42.734;23.288;2022-09-09T13:00:03;12.38;;;6.68;;
9489;SDS011;4783;42.734;23.288;2022-09-09T13:02:10;9.73;;;6.57;;
9489;SDS011;4783;42.734;23.288;2022-09-09T13:04:36;9.65;;;6.95;;
9489;SDS011;4783;42.734;23.288;2022-09-09T13:07:05;19.07;;;5.50;;
9489;SDS011;4783;42.734;23.288;2022-09-09T13:09:31;13.60;;;5.60;;
9489;SDS011;4783;42.734;23.288;2022-09-09T13:11:57;12.25;;;5.28;;
9489;SDS011;4783;42.734;23.288;2022-09-09T13:14:30;18.67;;;5.38;;
9489;SDS011;4783;42.734;23.288;2022-09-09T13:17:01;13.43;;;5.38;;
9489;SDS011;4783;42.734;23.288;2022-09-09T13:19:29;8.85;;;5.47;;
9489;SDS011;4783;42.734;23.288;2022-09-09T13:21:56;12.20;;;5.00;;
9489;SDS011;4783;42.734;23.288;2022-09-09T13:24:25;14.48;;;5.30;;
9489;SDS011;4783;42.734;23.288;2022-09-09T13:26:56;10.98;;;5.18;;
9489;SDS011;4783;42.734;23.288;2022-09-09T13:29:21;11.43;;;5.20;;
9489;SDS011;4783;42.734;23.288;2022-09-09T13:31:46;13.77;;;5.63;;
9489;SDS011;4783;42.734;23.288;2022-09-09T13:34:31;13.98;;;5.50;;
9489;SDS011;4783;42.734;23.288;2022-09-09T13:37:01;7.80;;;5.50;;
9489;SDS011;4783;42.734;23.288;2022-09-09T13:39:27;8.98;;;5.32;;
9489;SDS011;4783;42.734;23.288;2022-09-09T13:45:40;10.88;;;6.10;;
9489;SDS011;4783;42.734;23.288;2022-09-09T13:48:08;12.85;;;6.10;;
9489;SDS011;4783;42.734;23.288;2022-09-09T13:50:34;9.15;;;7.20;;
9489;SDS011;4783;42.734;23.288;2022-09-09T13:52:59;14.77;;;6.32;;
9489;SDS011;4783;42.734;23.288;2022-09-09T13:55:25;16.40;;;9.27;;
9489;SDS011;4783;42.734;23.288;2022-09-09T13:57:55;15.38;;;6.47;;
9489;SDS011;4783;42.734;23.288;2022-09-09T14:00:21;9.00;;;6.28;;
9489;SDS011;4783;42.734;23.288;2022-09-09T14:02:47;11.10;;;5.72;;
9489;SDS011;4783;42.734;23.288;2022-09-09T14:05:12;15.73;;;5.50;;
9489;SDS011;4783;42.734;23.288;2022-09-09T14:07:38;10.90;;;5.93;;
9489;SDS011;4783;42.734;23.288;2022-09-09T14:10:05;13.13;;;4.97;;
9489;SDS011;4783;42.734;23.288;2022-09-09T14:12:31;12.00;;;5.00;;
9489;SDS011;4783;42.734;23.288;2022-09-09T14:14:56;10.45;;;5.57;;
9489;SDS011;4783;42.734;23.288;2022-09-09T14:17:21;9.57;;;5.40;;
9489;SDS011;4783;42.734;23.288;2022-09-09T14:19:47;12.93;;;5.65;;
9489;SDS011;4783;42.734;23.288;2022-09-09T14:22:12;15.43;;;5.22;;
9489;SDS011;4783;42.734;23.288;2022-09-09T14:24:37;13.38;;;5.05;;
9489;SDS011;4783;42.734;23.288;2022-09-09T14:27:03;9.57;;;5.03;;
9489;SDS011;4783;42.734;23.288;2022-09-09T14:29:28;13.02;;;5.47;;
9489;SDS011;4783;42.734;23.288;2022-09-09T14:31:53;19.02;;;5.45;;
9489;SDS011;4783;42.734;23.288;2022-09-09T14:34:19;11.60;;;4.70;;
9489;SDS011;4783;42.734;23.288;2022-09-09T14:36:44;8.38;;;4.47;;
9489;SDS011;4783;42.734;23.288;2022-09-09T14:39:10;9.05;;;4.30;;
9489;SDS011;4783;42.734;23.288;2022-09-09T14:41:36;12.82;;;4.85;;
9489;SDS011;4783;42.734;23.288;2022-09-09T14:44:01;11.85;;;4.88;;
9489;SDS011;4783;42.734;23.288;2022-09-09T14:46:26;14.32;;;4.78;;
9489;SDS011;4783;42.734;23.288;2022-09-09T14:48:52;8.95;;;4.65;;
9489;SDS011;4783;42.734;23.288;2022-09-09T14:51:18;12.23;;;4.38;;
9489;SDS011;4783;42.734;23.288;2022-09-09T14:53:44;28.33;;;4.70;;
9489;SDS011;4783;42.734;23.288;2022-09-09T14:56:11;14.40;;;6.18;;
9489;SDS011;4783;42.734;23.288;2022-09-09T14:58:37;12.75;;;5.57;;
9489;SDS011;4783;42.734;23.288;2022-09-09T15:01:13;9.10;;;5.55;;
9489;SDS011;4783;42.734;23.288;2022-09-09T15:03:39;13.25;;;5.80;;
9489;SDS011;4783;42.734;23.288;2022-09-09T15:06:05;11.52;;;5.07;;
9489;SDS011;4783;42.734;23.288;2022-09-09T15:08:30;14.57;;;5.00;;
9489;SDS011;4783;42.734;23.288;2022-09-09T15:10:59;12.77;;;5.03;;
9489;SDS011;4783;42.734;23.288;2022-09-09T15:13:25;15.57;;;5.68;;
9489;SDS011;4783;42.734;23.288;2022-09-09T15:15:51;9.23;;;4.70;;
9489;SDS011;4783;42.734;23.288;2022-09-09T15:18:16;14.10;;;5.47;;
9489;SDS011;4783;42.734;23.288;2022-09-09T15:20:44;12.63;;;5.47;;
9489;SDS011;4783;42.734;23.288;2022-09-09T15:23:11;14.93;;;5.53;;
9489;SDS011;4783;42.734;23.288;2022-09-09T15:25:36;11.40;;;5.07;;
9489;SDS011;4783;42.734;23.288;2022-09-09T15:28:01;15.82;;;4.47;;
9489;SDS011;4783;42.734;23.288;2022-09-09T15:30:26;7.03;;;4.18;;
9489;SDS011;4783;42.734;23.288;2022-09-09T15:32:52;11.85;;;6.32;;
9489;SDS011;4783;42.734;23.288;2022-09-09T15:35:18;13.02;;;5.75;;
